sensor_id;sensor_type;location;lat;lon;timestamp;P1;durP1;ratioP1;P2;durP2;ratioP2
19149;SDS011;9707;49.158;8.632;2023-05-16T00:00:04;14.55;;;11.18;;
19149;SDS011;9707;49.158;8.632;2023-05-16T00:02:32;14.48;;;11.63;;
19149;SDS011;9707;49.158;8.632;2023-05-16T00:04:58;15.57;;;11.45;;
19149;SDS011;9707;49.158;8.632;2023-05-16T00:07:23;16.35;;;13.07;;
19149;SDS011;9707;49.158;8.632;2023-05-16T00:09:49;12.95;;;10.73;;
19149;SDS011;9707;49.158;8.632;2023-05-16T00:12:14;20.27;;;15.00;;
19149;SDS011;9707;49.158;8.632;2023-05-16T00:14:41;17.15;;;12.65;;
19149;SDS011;9707;49.158;8.632;2023-05-16T00:17:07;19.90;;;15.32;;
19149;SDS011;9707;49.158;8.632;2023-05-16T00:19:36;16.92;;;13.45;;
19149;SDS011;9707;49.158;8.632;2023-05-16T00:22:03;20.75;;;16.08;;
19149;SDS011;9707;49.158;8.632;2023-05-16T00:24:29;19.98;;;13.70;;
19149;SDS011;9707;49.158;8.632;2023-05-16T00:26:54;19.92;;;14.88;;
19149;SDS011;9707;49.158;8.632;2023-05-16T00:29:19;21.08;;;15.43;;
19149;SDS011;9707;49.158;8.632;2023-05-16T00:31:44;21.00;;;15.57;;
19149;SDS011;9707;49.158;8.632;2023-05-16T00:34:13;23.33;;;17.40;;
19149;SDS011;9707;49.158;8.632;2023-05-16T00:36:38;22.63;;;17.00;;
19149;SDS011;9707;49.158;8.632;2023-05-16T00:39:03;22.02;;;15.32;;
19149;SDS011;9707;49.158;8.632;2023-05-16T00:41:29;23.73;;;16.92;;
19149;SDS011;9707;49.158;8.632;2023-05-16T00:43:54;27.58;;;19.10;;
19149;SDS011;9707;49.158;8.632;2023-05-16T00:46:19;27.17;;;17.40;;
19149;SDS011;9707;49.158;8.632;2023-05-16T00:48:45;28.65;;;19.38;;
19149;SDS011;9707;49.158;8.632;2023-05-16T00:51:10;28.15;;;20.40;;
19149;SDS011;9707;49.158;8.632;2023-05-16T00:53:35;27.48;;;19.50;;
19149;SDS011;9707;49.158;8.632;2023-05-16T00:56:01;30.00;;;20.70;;
19149;SDS011;9707;49.158;8.632;2023-05-16T00:58:26;29.02;;;19.27;;
19149;SDS011;9707;49.158;8.632;2023-05-16T01:00:54;22.45;;;16.05;;
19149;SDS011;9707;49.158;8.632;2023-05-16T01:03:20;27.90;;;19.38;;
19149;SDS011;9707;49.158;8.632;2023-05-16T01:05:46;28.63;;;20.40;;
19149;SDS011;9707;49.158;8.632;2023-05-16T01:08:11;26.38;;;19.10;;
19149;SDS011;9707;49.158;8.632;2023-05-16T01:10:43;28.15;;;18.13;;
19149;SDS011;9707;49.158;8.632;2023-05-16T01:13:23;29.13;;;20.88;;
19149;SDS011;9707;49.158;8.632;2023-05-16T01:16:45;28.90;;;20.90;;
19149;SDS011;9707;49.158;8.632;2023-05-16T01:19:06;24.30;;;17.00;;
19149;SDS011;9707;49.158;8.632;2023-05-16T01:21:41;29.48;;;21.20;;
19149;SDS011;9707;49.158;8.632;2023-05-16T01:24:26;33.30;;;21.65;;
19149;SDS011;9707;49.158;8.632;2023-05-16T01:26:58;21.73;;;14.80;;
19149;SDS011;9707;49.158;8.632;2023-05-16T01:29:24;30.90;;;20.83;;
19149;SDS011;9707;49.158;8.632;2023-05-16T01:31:50;30.38;;;21.33;;
19149;SDS011;9707;49.158;8.632;2023-05-16T01:34:15;31.25;;;21.83;;
19149;SDS011;9707;49.158;8.632;2023-05-16T01:36:43;34.15;;;23.08;;
19149;SDS011;9707;49.158;8.632;2023-05-16T01:40:02;34.28;;;23.42;;
19149;SDS011;9707;49.158;8.632;2023-05-16T01:42:17;26.33;;;18.33;;
19149;SDS011;9707;49.158;8.632;2023-05-16T01:44:55;32.75;;;21.65;;
19149;SDS011;9707;49.158;8.632;2023-05-16T01:47:27;35.53;;;24.88;;
19149;SDS011;9707;49.158;8.632;2023-05-16T01:50:07;36.90;;;23.85;;
19149;SDS011;9707;49.158;8.632;2023-05-16T01:52:39;31.45;;;21.80;;
19149;SDS011;9707;49.158;8.632;2023-05-16T01:55:09;35.00;;;25.38;;
19149;SDS011;9707;49.158;8.632;2023-05-16T01:57:38;38.22;;;25.35;;
19149;SDS011;9707;49.158;8.632;2023-05-16T02:00:06;37.65;;;25.13;;
19149;SDS011;9707;49.158;8.632;2023-05-16T02:02:32;37.67;;;25.30;;
19149;SDS011;9707;49.158;8.632;2023-05-16T02:04:57;36.47;;;24.58;;
19149;SDS011;9707;49.158;8.632;2023-05-16T02:07:23;34.05;;;23.83;;
19149;SDS011;9707;49.158;8.632;2023-05-16T02:09:48;34.70;;;24.65;;
19149;SDS011;9707;49.158;8.632;2023-05-16T02:12:13;35.22;;;24.30;;
19149;SDS011;9707;49.158;8.632;2023-05-16T02:14:39;35.05;;;24.48;;
19149;SDS011;9707;49.158;8.632;2023-05-16T02:17:04;33.55;;;24.23;;
19149;SDS011;9707;49.158;8.632;2023-05-16T02:19:32;38.10;;;24.90;;
19149;SDS011;9707;49.158;8.632;2023-05-16T02:21:57;30.15;;;21.38;;
19149;SDS011;9707;49.158;8.632;2023-05-16T02:24:23;32.33;;;20.27;;
19149;SDS011;9707;49.158;8.632;2023-05-16T02:26:48;33.35;;;23.23;;
19149;SDS011;9707;49.158;8.632;2023-05-16T02:29:13;33.22;;;21.48;;
19149;SDS011;9707;49.158;8.632;2023-05-16T02:31:40;28.80;;;19.50;;
19149;SDS011;9707;49.158;8.632;2023-05-16T02:34:06;35.38;;;24.35;;
19149;SDS011;9707;49.158;8.632;2023-05-16T02:36:32;33.25;;;23.10;;
19149;SDS011;9707;49.158;8.632;2023-05-16T02:38:58;32.55;;;23.52;;
19149;SDS011;9707;49.158;8.632;2023-05-16T02:41:23;34.80;;;25.00;;
19149;SDS011;9707;49.158;8.632;2023-05-16T02:43:49;35.67;;;25.38;;
19149;SDS011;9707;49.158;8.632;2023-05-16T02:46:31;31.17;;;20.98;;
19149;SDS011;9707;49.158;8.632;2023-05-16T02:48:58;30.90;;;21.45;;
19149;SDS011;9707;49.158;8.632;2023-05-16T02:51:24;26.20;;;18.30;;
19149;SDS011;9707;49.158;8.632;2023-05-16T02:53:51;27.23;;;18.20;;
19149;SDS011;9707;49.158;8.632;2023-05-16T02:56:17;34.03;;;23.20;;
19149;SDS011;9707;49.158;8.632;2023-05-16T02:58:43;26.42;;;17.73;;
19149;SDS011;9707;49.158;8.632;2023-05-16T03:01:11;24.23;;;16.92;;
19149;SDS011;9707;49.158;8.632;2023-05-16T03:03:36;30.42;;;19.35;;
19149;SDS011;9707;49.158;8.632;2023-05-16T03:06:01;33.50;;;22.00;;
19149;SDS011;9707;49.158;8.632;2023-05-16T03:08:27;31.33;;;21.10;;
19149;SDS011;9707;49.158;8.632;2023-05-16T03:10:52;30.65;;;21.33;;
19149;SDS011;9707;49.158;8.632;2023-05-16T03:13:17;30.58;;;20.73;;
19149;SDS011;9707;49.158;8.632;2023-05-16T03:15:43;26.33;;;18.02;;
19149;SDS011;9707;49.158;8.632;2023-05-16T03:18:08;27.65;;;18.55;;
19149;SDS011;9707;49.158;8.632;2023-05-16T03:20:34;29.05;;;19.20;;
19149;SDS011;9707;49.158;8.632;2023-05-16T03:22:59;25.88;;;18.38;;
19149;SDS011;9707;49.158;8.632;2023-05-16T03:25:25;22.92;;;16.48;;
19149;SDS011;9707;49.158;8.632;2023-05-16T03:27:50;31.20;;;17.75;;
19149;SDS011;9707;49.158;8.632;2023-05-16T03:30:16;20.77;;;15.18;;
19149;SDS011;9707;49.158;8.632;2023-05-16T03:32:41;20.08;;;13.85;;
19149;SDS011;9707;49.158;8.632;2023-05-16T03:35:09;24.52;;;15.88;;
19149;SDS011;9707;49.158;8.632;2023-05-16T03:37:35;24.10;;;16.40;;
19149;SDS011;9707;49.158;8.632;2023-05-16T03:40:01;23.98;;;15.98;;
19149;SDS011;9707;49.158;8.632;2023-05-16T03:42:29;22.33;;;14.93;;
19149;SDS011;9707;49.158;8.632;2023-05-16T03:44:55;23.67;;;16.33;;
19149;SDS011;9707;49.158;8.632;2023-05-16T03:47:20;21.05;;;15.70;;
19149;SDS011;9707;49.158;8.632;2023-05-16T03:49:46;21.77;;;13.95;;
19149;SDS011;9707;49.158;8.632;2023-05-16T03:52:11;22.85;;;16.23;;
19149;SDS011;9707;49.158;8.632;2023-05-16T03:54:36;24.55;;;14.90;;
19149;SDS011;9707;49.158;8.632;2023-05-16T03:57:02;22.00;;;14.48;;
19149;SDS011;9707;49.158;8.632;2023-05-16T03:59:27;20.60;;;14.32;;
19149;SDS011;9707;49.158;8.632;2023-05-16T04:01:52;22.02;;;15.40;;
19149;SDS011;9707;49.158;8.632;2023-05-16T04:04:17;20.85;;;14.98;;
19149;SDS011;9707;49.158;8.632;2023-05-16T04:06:43;18.17;;;12.77;;
19149;SDS011;9707;49.158;8.632;2023-05-16T04:09:08;17.60;;;11.75;;
19149;SDS011;9707;49.158;8.632;2023-05-16T04:11:33;21.52;;;14.40;;
19149;SDS011;9707;49.158;8.632;2023-05-16T04:13:59;20.58;;;14.23;;
19149;SDS011;9707;49.158;8.632;2023-05-16T04:16:25;21.50;;;14.43;;
19149;SDS011;9707;49.158;8.632;2023-05-16T04:18:51;23.17;;;14.10;;
19149;SDS011;9707;49.158;8.632;2023-05-16T04:21:16;19.27;;;12.50;;
19149;SDS011;9707;49.158;8.632;2023-05-16T04:23:42;23.33;;;15.35;;
19149;SDS011;9707;49.158;8.632;2023-05-16T04:26:07;21.58;;;14.07;;
19149;SDS011;9707;49.158;8.632;2023-05-16T04:28:32;23.33;;;15.90;;
19149;SDS011;9707;49.158;8.632;2023-05-16T04:30:58;18.98;;;13.48;;
19149;SDS011;9707;49.158;8.632;2023-05-16T04:33:23;22.98;;;14.32;;
19149;SDS011;9707;49.158;8.632;2023-05-16T04:35:48;21.60;;;13.25;;
19149;SDS011;9707;49.158;8.632;2023-05-16T04:38:13;20.65;;;12.60;;
19149;SDS011;9707;49.158;8.632;2023-05-16T04:40:39;16.27;;;11.05;;
19149;SDS011;9707;49.158;8.632;2023-05-16T04:43:05;15.60;;;10.38;;
19149;SDS011;9707;49.158;8.632;2023-05-16T04:45:31;19.05;;;10.38;;
19149;SDS011;9707;49.158;8.632;2023-05-16T04:47:56;19.48;;;12.45;;
19149;SDS011;9707;49.158;8.632;2023-05-16T04:50:21;16.40;;;11.32;;
19149;SDS011;9707;49.158;8.632;2023-05-16T04:52:47;17.48;;;12.52;;
19149;SDS011;9707;49.158;8.632;2023-05-16T04:55:12;18.02;;;12.18;;
19149;SDS011;9707;49.158;8.632;2023-05-16T04:57:37;18.05;;;10.93;;
19149;SDS011;9707;49.158;8.632;2023-05-16T05:00:03;18.13;;;12.63;;
19149;SDS011;9707;49.158;8.632;2023-05-16T05:02:31;20.95;;;13.35;;
19149;SDS011;9707;49.158;8.632;2023-05-16T05:04:57;19.05;;;12.40;;
19149;SDS011;9707;49.158;8.632;2023-05-16T05:07:22;20.27;;;13.23;;
19149;SDS011;9707;49.158;8.632;2023-05-16T05:09:47;19.92;;;13.00;;
19149;SDS011;9707;49.158;8.632;2023-05-16T05:12:13;21.90;;;13.35;;
19149;SDS011;9707;49.158;8.632;2023-05-16T05:14:38;21.77;;;13.25;;
19149;SDS011;9707;49.158;8.632;2023-05-16T05:17:03;20.27;;;11.52;;
19149;SDS011;9707;49.158;8.632;2023-05-16T05:19:29;17.23;;;11.82;;
19149;SDS011;9707;49.158;8.632;2023-05-16T05:21:54;18.83;;;14.07;;
19149;SDS011;9707;49.158;8.632;2023-05-16T05:24:19;21.13;;;13.48;;
19149;SDS011;9707;49.158;8.632;2023-05-16T05:26:44;19.30;;;13.13;;
19149;SDS011;9707;49.158;8.632;2023-05-16T05:29:10;16.70;;;10.80;;
19149;SDS011;9707;49.158;8.632;2023-05-16T05:31:35;26.15;;;13.02;;
19149;SDS011;9707;49.158;8.632;2023-05-16T05:34:01;20.50;;;13.00;;
19149;SDS011;9707;49.158;8.632;2023-05-16T05:36:26;15.35;;;10.25;;
19149;SDS011;9707;49.158;8.632;2023-05-16T05:38:52;18.98;;;12.55;;
19149;SDS011;9707;49.158;8.632;2023-05-16T05:41:17;17.80;;;11.98;;
19149;SDS011;9707;49.158;8.632;2023-05-16T05:43:42;19.08;;;12.82;;
19149;SDS011;9707;49.158;8.632;2023-05-16T05:46:08;17.45;;;12.05;;
19149;SDS011;9707;49.158;8.632;2023-05-16T05:48:33;16.15;;;11.60;;
19149;SDS011;9707;49.158;8.632;2023-05-16T05:50:58;17.48;;;11.80;;
19149;SDS011;9707;49.158;8.632;2023-05-16T05:53:24;20.67;;;12.52;;
19149;SDS011;9707;49.158;8.632;2023-05-16T05:55:49;18.98;;;12.18;;
19149;SDS011;9707;49.158;8.632;2023-05-16T05:58:15;21.20;;;12.88;;
19149;SDS011;9707;49.158;8.632;2023-05-16T06:00:42;19.15;;;11.88;;
19149;SDS011;9707;49.158;8.632;2023-05-16T06:03:07;17.88;;;12.57;;
19149;SDS011;9707;49.158;8.632;2023-05-16T06:05:32;18.10;;;10.75;;
19149;SDS011;9707;49.158;8.632;2023-05-16T06:07:57;19.52;;;13.05;;
19149;SDS011;9707;49.158;8.632;2023-05-16T06:10:23;17.92;;;11.18;;
19149;SDS011;9707;49.158;8.632;2023-05-16T06:12:48;16.95;;;10.77;;
19149;SDS011;9707;49.158;8.632;2023-05-16T06:15:13;17.92;;;10.25;;
19149;SDS011;9707;49.158;8.632;2023-05-16T06:17:38;20.52;;;11.60;;
19149;SDS011;9707;49.158;8.632;2023-05-16T06:20:04;13.93;;;9.23;;
19149;SDS011;9707;49.158;8.632;2023-05-16T06:22:30;15.73;;;10.10;;
19149;SDS011;9707;49.158;8.632;2023-05-16T06:24:55;17.17;;;10.43;;
19149;SDS011;9707;49.158;8.632;2023-05-16T06:27:20;15.02;;;9.60;;
19149;SDS011;9707;49.158;8.632;2023-05-16T06:29:46;16.63;;;10.00;;
19149;SDS011;9707;49.158;8.632;2023-05-16T06:32:11;10.75;;;7.30;;
19149;SDS011;9707;49.158;8.632;2023-05-16T06:34:37;18.67;;;9.85;;
19149;SDS011;9707;49.158;8.632;2023-05-16T06:37:02;13.25;;;9.60;;
19149;SDS011;9707;49.158;8.632;2023-05-16T06:39:27;16.75;;;10.38;;
19149;SDS011;9707;49.158;8.632;2023-05-16T06:41:53;14.85;;;9.45;;
19149;SDS011;9707;49.158;8.632;2023-05-16T06:44:18;13.85;;;8.45;;
19149;SDS011;9707;49.158;8.632;2023-05-16T06:46:43;12.30;;;7.80;;
19149;SDS011;9707;49.158;8.632;2023-05-16T06:49:09;14.50;;;8.75;;
19149;SDS011;9707;49.158;8.632;2023-05-16T06:51:34;15.88;;;8.50;;
19149;SDS011;9707;49.158;8.632;2023-05-16T06:54:00;13.18;;;7.70;;
19149;SDS011;9707;49.158;8.632;2023-05-16T06:56:25;10.95;;;7.53;;
19149;SDS011;9707;49.158;8.632;2023-05-16T06:58:52;12.25;;;7.50;;
19149;SDS011;9707;49.158;8.632;2023-05-16T07:01:17;9.38;;;7.07;;
19149;SDS011;9707;49.158;8.632;2023-05-16T07:03:43;7.70;;;5.65;;
19149;SDS011;9707;49.158;8.632;2023-05-16T07:06:08;8.20;;;5.10;;
19149;SDS011;9707;49.158;8.632;2023-05-16T07:08:33;11.95;;;6.05;;
19149;SDS011;9707;49.158;8.632;2023-05-16T07:11:00;8.25;;;5.88;;
19149;SDS011;9707;49.158;8.632;2023-05-16T07:13:26;10.18;;;5.45;;
19149;SDS011;9707;49.158;8.632;2023-05-16T07:15:51;8.60;;;5.55;;
19149;SDS011;9707;49.158;8.632;2023-05-16T07:18:16;9.52;;;5.00;;
19149;SDS011;9707;49.158;8.632;2023-05-16T07:20:42;7.80;;;5.47;;
19149;SDS011;9707;49.158;8.632;2023-05-16T07:23:07;7.50;;;5.03;;
19149;SDS011;9707;49.158;8.632;2023-05-16T07:25:32;5.75;;;4.28;;
19149;SDS011;9707;49.158;8.632;2023-05-16T07:27:57;8.40;;;4.10;;
19149;SDS011;9707;49.158;8.632;2023-05-16T07:30:23;5.18;;;4.53;;
19149;SDS011;9707;49.158;8.632;2023-05-16T07:32:49;7.85;;;4.40;;
19149;SDS011;9707;49.158;8.632;2023-05-16T07:35:14;7.47;;;4.82;;
19149;SDS011;9707;49.158;8.632;2023-05-16T07:37:39;10.65;;;3.95;;
19149;SDS011;9707;49.158;8.632;2023-05-16T07:40:06;5.00;;;3.47;;
19149;SDS011;9707;49.158;8.632;2023-05-16T07:42:32;4.85;;;3.50;;
19149;SDS011;9707;49.158;8.632;2023-05-16T07:44:57;4.40;;;3.25;;
19149;SDS011;9707;49.158;8.632;2023-05-16T07:47:23;6.60;;;3.00;;
19149;SDS011;9707;49.158;8.632;2023-05-16T07:49:48;3.25;;;2.67;;
19149;SDS011;9707;49.158;8.632;2023-05-16T07:52:13;4.28;;;2.38;;
19149;SDS011;9707;49.158;8.632;2023-05-16T07:54:38;3.15;;;2.17;;
19149;SDS011;9707;49.158;8.632;2023-05-16T07:57:04;6.10;;;2.35;;
19149;SDS011;9707;49.158;8.632;2023-05-16T07:59:29;5.25;;;2.40;;
19149;SDS011;9707;49.158;8.632;2023-05-16T08:01:54;4.07;;;2.05;;
19149;SDS011;9707;49.158;8.632;2023-05-16T08:04:20;2.35;;;2.10;;
19149;SDS011;9707;49.158;8.632;2023-05-16T08:06:45;2.92;;;1.77;;
19149;SDS011;9707;49.158;8.632;2023-05-16T08:09:11;2.42;;;1.80;;
19149;SDS011;9707;49.158;8.632;2023-05-16T08:11:36;4.80;;;1.77;;
19149;SDS011;9707;49.158;8.632;2023-05-16T08:14:02;2.22;;;1.50;;
19149;SDS011;9707;49.158;8.632;2023-05-16T08:16:27;2.25;;;1.48;;
19149;SDS011;9707;49.158;8.632;2023-05-16T08:18:52;2.88;;;1.60;;
19149;SDS011;9707;49.158;8.632;2023-05-16T08:21:17;1.60;;;1.30;;
19149;SDS011;9707;49.158;8.632;2023-05-16T08:23:43;1.30;;;1.20;;
19149;SDS011;9707;49.158;8.632;2023-05-16T08:26:08;1.40;;;1.30;;
19149;SDS011;9707;49.158;8.632;2023-05-16T08:28:34;5.55;;;1.20;;
19149;SDS011;9707;49.158;8.632;2023-05-16T08:30:59;1.65;;;1.40;;
19149;SDS011;9707;49.158;8.632;2023-05-16T08:33:24;2.00;;;1.17;;
19149;SDS011;9707;49.158;8.632;2023-05-16T08:35:50;1.42;;;1.20;;
19149;SDS011;9707;49.158;8.632;2023-05-16T08:38:16;1.67;;;1.23;;
19149;SDS011;9707;49.158;8.632;2023-05-16T08:40:42;2.03;;;1.40;;
19149;SDS011;9707;49.158;8.632;2023-05-16T08:43:07;2.13;;;1.55;;
19149;SDS011;9707;49.158;8.632;2023-05-16T08:45:32;2.00;;;1.38;;
19149;SDS011;9707;49.158;8.632;2023-05-16T08:47:59;2.97;;;1.50;;
19149;SDS011;9707;49.158;8.632;2023-05-16T08:50:25;2.67;;;1.40;;
19149;SDS011;9707;49.158;8.632;2023-05-16T08:52:55;2.90;;;1.40;;
19149;SDS011;9707;49.158;8.632;2023-05-16T08:55:21;1.52;;;1.10;;
19149;SDS011;9707;49.158;8.632;2023-05-16T08:57:49;3.03;;;1.10;;
19149;SDS011;9707;49.158;8.632;2023-05-16T09:00:16;1.10;;;1.00;;
19149;SDS011;9707;49.158;8.632;2023-05-16T09:02:43;1.73;;;1.13;;
19149;SDS011;9707;49.158;8.632;2023-05-16T09:05:10;2.60;;;1.20;;
19149;SDS011;9707;49.158;8.632;2023-05-16T09:07:37;1.33;;;1.00;;
19149;SDS011;9707;49.158;8.632;2023-05-16T09:10:03;0.98;;;0.88;;
19149;SDS011;9707;49.158;8.632;2023-05-16T09:12:30;0.70;;;0.70;;
19149;SDS011;9707;49.158;8.632;2023-05-16T09:14:56;1.35;;;0.80;;
19149;SDS011;9707;49.158;8.632;2023-05-16T09:17:22;1.48;;;0.82;;
19149;SDS011;9707;49.158;8.632;2023-05-16T09:19:47;2.00;;;0.55;;
19149;SDS011;9707;49.158;8.632;2023-05-16T09:22:16;0.70;;;0.50;;
19149;SDS011;9707;49.158;8.632;2023-05-16T09:24:43;0.57;;;0.50;;
19149;SDS011;9707;49.158;8.632;2023-05-16T09:29:41;0.93;;;0.77;;
19149;SDS011;9707;49.158;8.632;2023-05-16T09:32:15;0.60;;;0.57;;
19149;SDS011;9707;49.158;8.632;2023-05-16T09:34:44;0.85;;;0.50;;
19149;SDS011;9707;49.158;8.632;2023-05-16T09:37:13;1.08;;;0.45;;
19149;SDS011;9707;49.158;8.632;2023-05-16T09:39:49;2.55;;;0.75;;
19149;SDS011;9707;49.158;8.632;2023-05-16T09:42:16;1.42;;;0.60;;
19149;SDS011;9707;49.158;8.632;2023-05-16T09:44:47;0.60;;;0.60;;
19149;SDS011;9707;49.158;8.632;2023-05-16T09:47:14;1.27;;;1.10;;
19149;SDS011;9707;49.158;8.632;2023-05-16T09:49:40;1.92;;;1.00;;
19149;SDS011;9707;49.158;8.632;2023-05-16T09:52:06;1.58;;;1.30;;
19149;SDS011;9707;49.158;8.632;2023-05-16T09:54:31;1.42;;;1.00;;
19149;SDS011;9707;49.158;8.632;2023-05-16T09:56:57;0.60;;;0.60;;
19149;SDS011;9707;49.158;8.632;2023-05-16T09:59:24;2.22;;;1.00;;
19149;SDS011;9707;49.158;8.632;2023-05-16T10:01:49;1.85;;;1.00;;
19149;SDS011;9707;49.158;8.632;2023-05-16T10:04:17;1.13;;;0.88;;
19149;SDS011;9707;49.158;8.632;2023-05-16T10:06:42;1.05;;;0.73;;
19149;SDS011;9707;49.158;8.632;2023-05-16T10:09:10;1.00;;;0.80;;
19149;SDS011;9707;49.158;8.632;2023-05-16T10:11:36;1.38;;;0.80;;
19149;SDS011;9707;49.158;8.632;2023-05-16T10:14:04;0.75;;;0.60;;
19149;SDS011;9707;49.158;8.632;2023-05-16T10:16:30;1.95;;;0.90;;
19149;SDS011;9707;49.158;8.632;2023-05-16T10:18:56;4.57;;;0.80;;
19149;SDS011;9707;49.158;8.632;2023-05-16T10:21:22;1.17;;;1.00;;
19149;SDS011;9707;49.158;8.632;2023-05-16T10:23:49;2.67;;;0.80;;
19149;SDS011;9707;49.158;8.632;2023-05-16T10:26:16;1.02;;;0.60;;
19149;SDS011;9707;49.158;8.632;2023-05-16T10:28:41;1.63;;;0.60;;
19149;SDS011;9707;49.158;8.632;2023-05-16T10:31:07;1.35;;;0.60;;
19149;SDS011;9707;49.158;8.632;2023-05-16T10:33:35;0.63;;;0.30;;
19149;SDS011;9707;49.158;8.632;2023-05-16T10:36:00;0.73;;;0.47;;
19149;SDS011;9707;49.158;8.632;2023-05-16T10:38:27;0.50;;;0.35;;
19149;SDS011;9707;49.158;8.632;2023-05-16T10:40:54;0.70;;;0.30;;
19149;SDS011;9707;49.158;8.632;2023-05-16T10:43:24;0.70;;;0.52;;
19149;SDS011;9707;49.158;8.632;2023-05-16T10:45:55;0.60;;;0.30;;
19149;SDS011;9707;49.158;8.632;2023-05-16T10:48:28;0.52;;;0.25;;
19149;SDS011;9707;49.158;8.632;2023-05-16T10:50:55;1.70;;;0.40;;
19149;SDS011;9707;49.158;8.632;2023-05-16T10:53:21;1.27;;;0.38;;
19149;SDS011;9707;49.158;8.632;2023-05-16T10:58:57;1.77;;;0.40;;
19149;SDS011;9707;49.158;8.632;2023-05-16T11:06:23;0.70;;;0.40;;
19149;SDS011;9707;49.158;8.632;2023-05-16T11:14:20;0.60;;;0.40;;
19149;SDS011;9707;49.158;8.632;2023-05-16T11:16:51;0.70;;;0.20;;
19149;SDS011;9707;49.158;8.632;2023-05-16T11:19:32;2.38;;;0.30;;
19149;SDS011;9707;49.158;8.632;2023-05-16T11:22:03;2.15;;;0.30;;
19149;SDS011;9707;49.158;8.632;2023-05-16T11:24:31;2.13;;;0.60;;
19149;SDS011;9707;49.158;8.632;2023-05-16T11:26:59;3.20;;;1.45;;
19149;SDS011;9707;49.158;8.632;2023-05-16T11:29:27;4.15;;;1.08;;
19149;SDS011;9707;49.158;8.632;2023-05-16T11:31:53;1.52;;;0.60;;
19149;SDS011;9707;49.158;8.632;2023-05-16T11:34:18;1.58;;;0.43;;
19149;SDS011;9707;49.158;8.632;2023-05-16T11:36:43;0.60;;;0.40;;
19149;SDS011;9707;49.158;8.632;2023-05-16T11:39:09;0.82;;;0.50;;
19149;SDS011;9707;49.158;8.632;2023-05-16T11:41:36;1.15;;;0.55;;
19149;SDS011;9707;49.158;8.632;2023-05-16T11:44:02;1.55;;;0.70;;
19149;SDS011;9707;49.158;8.632;2023-05-16T11:46:27;0.77;;;0.45;;
19149;SDS011;9707;49.158;8.632;2023-05-16T11:48:53;1.08;;;0.60;;
19149;SDS011;9707;49.158;8.632;2023-05-16T11:51:18;0.65;;;0.50;;
19149;SDS011;9707;49.158;8.632;2023-05-16T11:53:45;1.00;;;0.65;;
19149;SDS011;9707;49.158;8.632;2023-05-16T11:56:13;2.53;;;0.50;;
19149;SDS011;9707;49.158;8.632;2023-05-16T11:58:39;1.05;;;0.40;;
19149;SDS011;9707;49.158;8.632;2023-05-16T12:01:04;2.33;;;0.60;;
19149;SDS011;9707;49.158;8.632;2023-05-16T12:03:29;1.98;;;0.65;;
19149;SDS011;9707;49.158;8.632;2023-05-16T12:05:59;0.95;;;0.50;;
19149;SDS011;9707;49.158;8.632;2023-05-16T12:08:24;3.40;;;0.80;;
19149;SDS011;9707;49.158;8.632;2023-05-16T12:10:51;1.50;;;0.50;;
19149;SDS011;9707;49.158;8.632;2023-05-16T12:13:17;2.80;;;0.77;;
19149;SDS011;9707;49.158;8.632;2023-05-16T12:15:44;1.08;;;0.77;;
19149;SDS011;9707;49.158;8.632;2023-05-16T12:18:10;0.93;;;0.52;;
19149;SDS011;9707;49.158;8.632;2023-05-16T12:20:36;1.48;;;0.52;;
19149;SDS011;9707;49.158;8.632;2023-05-16T12:23:01;1.05;;;0.60;;
19149;SDS011;9707;49.158;8.632;2023-05-16T12:27:58;1.13;;;0.70;;
19149;SDS011;9707;49.158;8.632;2023-05-16T12:30:25;2.17;;;0.80;;
19149;SDS011;9707;49.158;8.632;2023-05-16T12:32:54;1.42;;;0.60;;
19149;SDS011;9707;49.158;8.632;2023-05-16T12:35:23;1.20;;;0.77;;
19149;SDS011;9707;49.158;8.632;2023-05-16T12:37:49;2.10;;;0.50;;
19149;SDS011;9707;49.158;8.632;2023-05-16T12:40:15;1.42;;;0.60;;
19149;SDS011;9707;49.158;8.632;2023-05-16T12:42:44;1.50;;;0.60;;
19149;SDS011;9707;49.158;8.632;2023-05-16T12:45:13;1.08;;;0.70;;
19149;SDS011;9707;49.158;8.632;2023-05-16T12:47:40;5.32;;;1.00;;
19149;SDS011;9707;49.158;8.632;2023-05-16T12:50:09;1.08;;;0.50;;
19149;SDS011;9707;49.158;8.632;2023-05-16T12:52:51;2.50;;;0.70;;
19149;SDS011;9707;49.158;8.632;2023-05-16T12:55:18;2.55;;;0.85;;
19149;SDS011;9707;49.158;8.632;2023-05-16T12:57:45;2.88;;;0.90;;
19149;SDS011;9707;49.158;8.632;2023-05-16T13:00:15;3.13;;;0.70;;
19149;SDS011;9707;49.158;8.632;2023-05-16T13:02:45;2.63;;;0.80;;
19149;SDS011;9707;49.158;8.632;2023-05-16T13:05:11;3.00;;;0.98;;
19149;SDS011;9707;49.158;8.632;2023-05-16T13:07:37;2.80;;;1.10;;
19149;SDS011;9707;49.158;8.632;2023-05-16T13:10:09;1.50;;;1.30;;
19149;SDS011;9707;49.158;8.632;2023-05-16T13:12:36;3.10;;;1.08;;
19149;SDS011;9707;49.158;8.632;2023-05-16T13:15:08;3.38;;;1.20;;
19149;SDS011;9707;49.158;8.632;2023-05-16T13:17:34;2.60;;;1.10;;
19149;SDS011;9707;49.158;8.632;2023-05-16T13:20:01;3.47;;;1.00;;
19149;SDS011;9707;49.158;8.632;2023-05-16T13:22:29;3.92;;;1.00;;
19149;SDS011;9707;49.158;8.632;2023-05-16T13:24:54;2.75;;;0.95;;
19149;SDS011;9707;49.158;8.632;2023-05-16T13:27:20;3.05;;;1.05;;
19149;SDS011;9707;49.158;8.632;2023-05-16T13:29:45;3.42;;;1.33;;
19149;SDS011;9707;49.158;8.632;2023-05-16T13:32:11;3.35;;;1.10;;
19149;SDS011;9707;49.158;8.632;2023-05-16T13:34:36;2.97;;;1.30;;
19149;SDS011;9707;49.158;8.632;2023-05-16T13:37:02;3.78;;;1.02;;
19149;SDS011;9707;49.158;8.632;2023-05-16T13:39:27;4.45;;;1.30;;
19149;SDS011;9707;49.158;8.632;2023-05-16T13:41:53;4.43;;;1.00;;
19149;SDS011;9707;49.158;8.632;2023-05-16T13:44:18;4.18;;;1.10;;
19149;SDS011;9707;49.158;8.632;2023-05-16T13:46:44;5.35;;;1.23;;
19149;SDS011;9707;49.158;8.632;2023-05-16T13:49:09;4.07;;;1.30;;
19149;SDS011;9707;49.158;8.632;2023-05-16T13:51:35;2.75;;;1.02;;
19149;SDS011;9707;49.158;8.632;2023-05-16T13:54:00;4.00;;;1.20;;
19149;SDS011;9707;49.158;8.632;2023-05-16T13:56:25;2.63;;;1.40;;
19149;SDS011;9707;49.158;8.632;2023-05-16T13:58:50;2.90;;;0.95;;
19149;SDS011;9707;49.158;8.632;2023-05-16T14:01:16;4.20;;;1.27;;
19149;SDS011;9707;49.158;8.632;2023-05-16T14:03:41;3.50;;;1.08;;
19149;SDS011;9707;49.158;8.632;2023-05-16T14:06:07;2.97;;;1.00;;
19149;SDS011;9707;49.158;8.632;2023-05-16T14:08:32;4.20;;;1.00;;
19149;SDS011;9707;49.158;8.632;2023-05-16T14:10:58;3.50;;;1.00;;
19149;SDS011;9707;49.158;8.632;2023-05-16T14:13:23;3.47;;;1.05;;
19149;SDS011;9707;49.158;8.632;2023-05-16T14:15:48;3.72;;;1.20;;
19149;SDS011;9707;49.158;8.632;2023-05-16T14:18:13;4.03;;;1.02;;
19149;SDS011;9707;49.158;8.632;2023-05-16T14:20:39;3.10;;;0.88;;
19149;SDS011;9707;49.158;8.632;2023-05-16T14:23:04;4.05;;;1.20;;
19149;SDS011;9707;49.158;8.632;2023-05-16T14:25:29;4.85;;;1.50;;
19149;SDS011;9707;49.158;8.632;2023-05-16T14:27:55;2.17;;;1.30;;
19149;SDS011;9707;49.158;8.632;2023-05-16T14:30:20;4.55;;;1.48;;
19149;SDS011;9707;49.158;8.632;2023-05-16T14:32:46;4.75;;;1.30;;
19149;SDS011;9707;49.158;8.632;2023-05-16T14:35:11;2.42;;;0.80;;
19149;SDS011;9707;49.158;8.632;2023-05-16T14:37:36;6.03;;;1.70;;
19149;SDS011;9707;49.158;8.632;2023-05-16T14:40:02;4.43;;;1.23;;
19149;SDS011;9707;49.158;8.632;2023-05-16T14:42:28;2.70;;;1.17;;
19149;SDS011;9707;49.158;8.632;2023-05-16T14:44:55;3.67;;;1.42;;
19149;SDS011;9707;49.158;8.632;2023-05-16T14:47:20;4.03;;;1.30;;
19149;SDS011;9707;49.158;8.632;2023-05-16T14:49:45;3.08;;;1.05;;
19149;SDS011;9707;49.158;8.632;2023-05-16T14:52:11;3.97;;;1.08;;
19149;SDS011;9707;49.158;8.632;2023-05-16T14:54:36;5.00;;;1.02;;
19149;SDS011;9707;49.158;8.632;2023-05-16T14:57:01;3.60;;;1.33;;
19149;SDS011;9707;49.158;8.632;2023-05-16T14:59:28;1.77;;;0.82;;
19149;SDS011;9707;49.158;8.632;2023-05-16T15:01:53;4.25;;;1.30;;